sensor_id;sensor_type;location;lat;lon;timestamp;temperature;humidity
9965;DHT22;5023;53.554;9.964;2023-08-06T00:03:28;16.70;99.90
9965;DHT22;5023;53.554;9.964;2023-08-06T00:08:30;16.60;99.90
9965;DHT22;5023;53.554;9.964;2023-08-06T00:13:33;16.60;99.90
9965;DHT22;5023;53.554;9.964;2023-08-06T00:18:35;16.60;99.90
9965;DHT22;5023;53.554;9.964;2023-08-06T00:23:37;16.50;99.90
9965;DHT22;5023;53.554;9.964;2023-08-06T00:28:40;16.50;99.90
9965;DHT22;5023;53.554;9.964;2023-08-06T00:33:42;16.50;99.90
9965;DHT22;5023;53.554;9.964;2023-08-06T00:38:44;16.50;99.90
9965;DHT22;5023;53.554;9.964;2023-08-06T00:43:47;16.40;99.90
9965;DHT22;5023;53.554;9.964;2023-08-06T00:48:50;16.40;99.90
9965;DHT22;5023;53.554;9.964;2023-08-06T00:53:53;16.40;99.90
9965;DHT22;5023;53.554;9.964;2023-08-06T00:59:06;16.30;99.90
9965;DHT22;5023;53.554;9.964;2023-08-06T01:04:08;16.30;99.90
9965;DHT22;5023;53.554;9.964;2023-08-06T01:09:21;16.30;99.90
9965;DHT22;5023;53.554;9.964;2023-08-06T01:14:33;16.30;99.90
9965;DHT22;5023;53.554;9.964;2023-08-06T01:19:39;16.30;99.90
9965;DHT22;5023;53.554;9.964;2023-08-06T01:24:45;16.30;99.90
9965;DHT22;5023;53.554;9.964;2023-08-06T01:29:56;16.30;99.90
9965;DHT22;5023;53.554;9.964;2023-08-06T01:34:59;16.30;99.90
9965;DHT22;5023;53.554;9.964;2023-08-06T01:40:06;16.40;99.90
9965;DHT22;5023;53.554;9.964;2023-08-06T01:45:09;16.50;99.90
9965;DHT22;5023;53.554;9.964;2023-08-06T01:50:11;16.50;99.90
9965;DHT22;5023;53.554;9.964;2023-08-06T01:55:14;16.50;99.90
9965;DHT22;5023;53.554;9.964;2023-08-06T02:00:16;16.40;99.90
9965;DHT22;5023;53.554;9.964;2023-08-06T02:05:18;16.40;99.90
9965;DHT22;5023;53.554;9.964;2023-08-06T02:10:21;16.40;99.90
9965;DHT22;5023;53.554;9.964;2023-08-06T02:15:23;16.30;99.90
9965;DHT22;5023;53.554;9.964;2023-08-06T02:20:26;16.40;99.90
9965;DHT22;5023;53.554;9.964;2023-08-06T02:25:31;16.40;99.90
9965;DHT22;5023;53.554;9.964;2023-08-06T02:30:33;16.40;99.90
9965;DHT22;5023;53.554;9.964;2023-08-06T02:35:35;16.40;99.90
9965;DHT22;5023;53.554;9.964;2023-08-06T02:40:44;16.40;99.90
9965;DHT22;5023;53.554;9.964;2023-08-06T02:45:46;16.30;99.90
9965;DHT22;5023;53.554;9.964;2023-08-06T02:50:48;16.30;99.90
9965;DHT22;5023;53.554;9.964;2023-08-06T02:55:51;16.20;99.90
9965;DHT22;5023;53.554;9.964;2023-08-06T03:01:00;16.20;99.90
9965;DHT22;5023;53.554;9.964;2023-08-06T03:06:03;16.20;99.90
9965;DHT22;5023;53.554;9.964;2023-08-06T03:11:06;16.20;99.90
9965;DHT22;5023;53.554;9.964;2023-08-06T03:16:08;16.10;99.90
9965;DHT22;5023;53.554;9.964;2023-08-06T03:21:10;16.20;99.90
9965;DHT22;5023;53.554;9.964;2023-08-06T03:26:13;16.20;99.90
9965;DHT22;5023;53.554;9.964;2023-08-06T03:31:15;16.20;99.90
9965;DHT22;5023;53.554;9.964;2023-08-06T03:36:17;16.30;99.90
9965;DHT22;5023;53.554;9.964;2023-08-06T03:41:21;16.30;99.90
9965;DHT22;5023;53.554;9.964;2023-08-06T03:46:23;16.20;99.90
9965;DHT22;5023;53.554;9.964;2023-08-06T03:51:26;16.30;99.90
9965;DHT22;5023;53.554;9.964;2023-08-06T03:56:29;16.30;99.90
9965;DHT22;5023;53.554;9.964;2023-08-06T04:01:31;16.20;99.90
9965;DHT22;5023;53.554;9.964;2023-08-06T04:06:33;16.20;99.90
9965;DHT22;5023;53.554;9.964;2023-08-06T04:11:36;16.10;99.90
9965;DHT22;5023;53.554;9.964;2023-08-06T04:16:38;16.10;99.90
9965;DHT22;5023;53.554;9.964;2023-08-06T04:21:40;16.10;99.90
9965;DHT22;5023;53.554;9.964;2023-08-06T04:26:43;16.10;99.90
9965;DHT22;5023;53.554;9.964;2023-08-06T04:31:45;16.10;99.90
9965;DHT22;5023;53.554;9.964;2023-08-06T04:36:48;16.10;99.90
9965;DHT22;5023;53.554;9.964;2023-08-06T04:41:51;16.00;99.90
9965;DHT22;5023;53.554;9.964;2023-08-06T04:46:53;16.00;99.90
9965;DHT22;5023;53.554;9.964;2023-08-06T04:51:56;16.00;99.90
9965;DHT22;5023;53.554;9.964;2023-08-06T04:57:04;15.90;99.90
9965;DHT22;5023;53.554;9.964;2023-08-06T05:02:06;15.90;99.90
9965;DHT22;5023;53.554;9.964;2023-08-06T05:07:08;15.90;99.90
9965;DHT22;5023;53.554;9.964;2023-08-06T05:12:11;15.90;99.90
9965;DHT22;5023;53.554;9.964;2023-08-06T05:17:13;16.00;99.90
9965;DHT22;5023;53.554;9.964;2023-08-06T05:22:15;15.90;99.90
9965;DHT22;5023;53.554;9.964;2023-08-06T05:27:18;16.00;99.90
9965;DHT22;5023;53.554;9.964;2023-08-06T05:32:21;15.90;99.90
9965;DHT22;5023;53.554;9.964;2023-08-06T05:37:22;15.90;99.90
9965;DHT22;5023;53.554;9.964;2023-08-06T05:42:26;16.00;99.90
9965;DHT22;5023;53.554;9.964;2023-08-06T05:47:27;16.10;99.90
9965;DHT22;5023;53.554;9.964;2023-08-06T05:52:29;16.20;99.90
9965;DHT22;5023;53.554;9.964;2023-08-06T05:57:32;16.10;99.90
9965;DHT22;5023;53.554;9.964;2023-08-06T06:02:34;16.20;99.90
9965;DHT22;5023;53.554;9.964;2023-08-06T06:07:36;16.20;99.90
9965;DHT22;5023;53.554;9.964;2023-08-06T06:12:40;16.20;99.90
9965;DHT22;5023;53.554;9.964;2023-08-06T06:17:42;16.20;99.90
9965;DHT22;5023;53.554;9.964;2023-08-06T06:22:44;16.30;99.90
9965;DHT22;5023;53.554;9.964;2023-08-06T06:27:47;16.40;99.90
9965;DHT22;5023;53.554;9.964;2023-08-06T06:32:49;16.40;99.90
9965;DHT22;5023;53.554;9.964;2023-08-06T06:37:51;16.50;99.90
9965;DHT22;5023;53.554;9.964;2023-08-06T06:42:54;16.70;99.90
9965;DHT22;5023;53.554;9.964;2023-08-06T06:47:56;16.70;99.90
9965;DHT22;5023;53.554;9.964;2023-08-06T06:52:58;16.70;99.90
9965;DHT22;5023;53.554;9.964;2023-08-06T06:58:02;16.80;99.90
9965;DHT22;5023;53.554;9.964;2023-08-06T07:03:03;16.70;99.90
9965;DHT22;5023;53.554;9.964;2023-08-06T07:08:05;16.70;99.90
9965;DHT22;5023;53.554;9.964;2023-08-06T07:13:09;16.80;99.90
9965;DHT22;5023;53.554;9.964;2023-08-06T07:18:11;16.80;99.90
9965;DHT22;5023;53.554;9.964;2023-08-06T07:23:13;16.90;99.90
9965;DHT22;5023;53.554;9.964;2023-08-06T07:28:17;17.00;99.90
9965;DHT22;5023;53.554;9.964;2023-08-06T07:33:19;17.10;99.90
9965;DHT22;5023;53.554;9.964;2023-08-06T07:38:22;17.20;99.90
9965;DHT22;5023;53.554;9.964;2023-08-06T07:43:25;17.20;99.90
9965;DHT22;5023;53.554;9.964;2023-08-06T07:48:27;17.30;99.90
9965;DHT22;5023;53.554;9.964;2023-08-06T07:53:35;17.30;99.90
9965;DHT22;5023;53.554;9.964;2023-08-06T07:58:39;17.30;99.90
9965;DHT22;5023;53.554;9.964;2023-08-06T08:03:40;17.40;99.90
9965;DHT22;5023;53.554;9.964;2023-08-06T08:08:42;17.40;99.90
9965;DHT22;5023;53.554;9.964;2023-08-06T08:13:46;17.40;99.90
9965;DHT22;5023;53.554;9.964;2023-08-06T08:18:48;17.40;99.90
9965;DHT22;5023;53.554;9.964;2023-08-06T08:23:50;17.40;99.90
9965;DHT22;5023;53.554;9.964;2023-08-06T08:28:53;17.40;99.90
9965;DHT22;5023;53.554;9.964;2023-08-06T08:33:55;17.50;99.90
9965;DHT22;5023;53.554;9.964;2023-08-06T08:39:02;17.60;99.90
9965;DHT22;5023;53.554;9.964;2023-08-06T08:44:08;17.60;99.90
9965;DHT22;5023;53.554;9.964;2023-08-06T08:49:14;17.60;99.90
9965;DHT22;5023;53.554;9.964;2023-08-06T08:54:17;17.80;99.90
9965;DHT22;5023;53.554;9.964;2023-08-06T08:59:20;17.80;99.90
9965;DHT22;5023;53.554;9.964;2023-08-06T09:04:23;17.80;99.90
9965;DHT22;5023;53.554;9.964;2023-08-06T09:09:26;17.80;99.90
9965;DHT22;5023;53.554;9.964;2023-08-06T09:14:31;17.80;99.90
9965;DHT22;5023;53.554;9.964;2023-08-06T09:19:33;17.90;99.90
9965;DHT22;5023;53.554;9.964;2023-08-06T09:24:38;17.80;99.90
9965;DHT22;5023;53.554;9.964;2023-08-06T09:29:42;17.90;99.90
9965;DHT22;5023;53.554;9.964;2023-08-06T09:34:46;17.80;99.90
9965;DHT22;5023;53.554;9.964;2023-08-06T09:39:48;17.70;99.90
9965;DHT22;5023;53.554;9.964;2023-08-06T09:45:06;17.70;99.90
9965;DHT22;5023;53.554;9.964;2023-08-06T09:50:16;17.80;99.90
9965;DHT22;5023;53.554;9.964;2023-08-06T09:55:19;17.80;99.90
9965;DHT22;5023;53.554;9.964;2023-08-06T10:00:24;17.80;99.90
9965;DHT22;5023;53.554;9.964;2023-08-06T10:05:27;17.80;99.90
9965;DHT22;5023;53.554;9.964;2023-08-06T10:10:32;17.70;99.90
9965;DHT22;5023;53.554;9.964;2023-08-06T10:15:36;17.80;99.90
9965;DHT22;5023;53.554;9.964;2023-08-06T10:20:39;17.90;99.90
9965;DHT22;5023;53.554;9.964;2023-08-06T10:25:41;17.90;99.90
9965;DHT22;5023;53.554;9.964;2023-08-06T10:30:45;18.00;99.90
9965;DHT22;5023;53.554;9.964;2023-08-06T10:35:48;17.90;99.90
9965;DHT22;5023;53.554;9.964;2023-08-06T10:41:01;18.00;99.90
9965;DHT22;5023;53.554;9.964;2023-08-06T10:46:10;18.00;99.90
9965;DHT22;5023;53.554;9.964;2023-08-06T10:51:13;18.00;99.90
9965;DHT22;5023;53.554;9.964;2023-08-06T10:56:17;18.00;99.90
9965;DHT22;5023;53.554;9.964;2023-08-06T11:01:22;17.90;99.90
9965;DHT22;5023;53.554;9.964;2023-08-06T11:06:25;17.90;99.90
9965;DHT22;5023;53.554;9.964;2023-08-06T11:11:28;17.90;99.90
9965;DHT22;5023;53.554;9.964;2023-08-06T11:16:32;17.90;99.90
9965;DHT22;5023;53.554;9.964;2023-08-06T11:21:36;17.90;99.90
9965;DHT22;5023;53.554;9.964;2023-08-06T11:26:39;18.00;99.90
9965;DHT22;5023;53.554;9.964;2023-08-06T11:31:43;18.00;99.90
9965;DHT22;5023;53.554;9.964;2023-08-06T11:36:47;18.00;99.90
9965;DHT22;5023;53.554;9.964;2023-08-06T11:41:49;18.00;99.90
9965;DHT22;5023;53.554;9.964;2023-08-06T11:46:54;18.00;99.90
9965;DHT22;5023;53.554;9.964;2023-08-06T11:51:58;18.10;99.90
9965;DHT22;5023;53.554;9.964;2023-08-06T11:57:00;18.10;99.90
9965;DHT22;5023;53.554;9.964;2023-08-06T12:02:07;18.10;99.90
9965;DHT22;5023;53.554;9.964;2023-08-06T12:07:10;18.10;99.90
9965;DHT22;5023;53.554;9.964;2023-08-06T12:12:13;18.10;99.90
9965;DHT22;5023;53.554;9.964;2023-08-06T12:17:17;18.10;99.90
9965;DHT22;5023;53.554;9.964;2023-08-06T12:22:19;18.10;99.90
9965;DHT22;5023;53.554;9.964;2023-08-06T12:27:21;18.10;99.90
9965;DHT22;5023;53.554;9.964;2023-08-06T12:32:24;18.10;99.90
9965;DHT22;5023;53.554;9.964;2023-08-06T12:37:27;18.00;99.90
9965;DHT22;5023;53.554;9.964;2023-08-06T12:42:29;18.10;99.90
9965;DHT22;5023;53.554;9.964;2023-08-06T12:47:33;18.30;99.90
9965;DHT22;5023;53.554;9.964;2023-08-06T12:52:35;18.30;99.90
9965;DHT22;5023;53.554;9.964;2023-08-06T12:57:37;18.30;99.90
9965;DHT22;5023;53.554;9.964;2023-08-06T13:02:40;18.40;99.90
9965;DHT22;5023;53.554;9.964;2023-08-06T13:07:42;18.50;99.90
9965;DHT22;5023;53.554;9.964;2023-08-06T13:12:44;18.60;99.90
9965;DHT22;5023;53.554;9.964;2023-08-06T13:17:48;18.70;99.90
9965;DHT22;5023;53.554;9.964;2023-08-06T13:22:50;18.90;99.90
9965;DHT22;5023;53.554;9.964;2023-08-06T13:27:53;19.20;99.90
9965;DHT22;5023;53.554;9.964;2023-08-06T13:32:57;19.20;99.90
9965;DHT22;5023;53.554;9.964;2023-08-06T13:37:59;19.30;99.90
9965;DHT22;5023;53.554;9.964;2023-08-06T13:43:03;19.20;99.90
9965;DHT22;5023;53.554;9.964;2023-08-06T13:48:06;19.20;99.90
9965;DHT22;5023;53.554;9.964;2023-08-06T13:53:08;19.20;99.90
9965;DHT22;5023;53.554;9.964;2023-08-06T13:58:10;19.30;99.90
9965;DHT22;5023;53.554;9.964;2023-08-06T14:03:14;19.20;99.90
9965;DHT22;5023;53.554;9.964;2023-08-06T14:08:16;19.30;99.90
9965;DHT22;5023;53.554;9.964;2023-08-06T14:13:18;19.30;99.90
9965;DHT22;5023;53.554;9.964;2023-08-06T14:18:22;19.30;99.90
9965;DHT22;5023;53.554;9.964;2023-08-06T14:23:24;19.30;99.90
9965;DHT22;5023;53.554;9.964;2023-08-06T14:28:26;19.40;99.90
9965;DHT22;5023;53.554;9.964;2023-08-06T14:33:29;19.50;99.90
9965;DHT22;5023;53.554;9.964;2023-08-06T14:38:31;19.30;99.90
9965;DHT22;5023;53.554;9.964;2023-08-06T14:43:33;19.00;99.90
9965;DHT22;5023;53.554;9.964;2023-08-06T14:48:36;18.90;99.90
9965;DHT22;5023;53.554;9.964;2023-08-06T14:53:39;18.80;99.90
9965;DHT22;5023;53.554;9.964;2023-08-06T14:58:41;18.70;99.90
9965;DHT22;5023;53.554;9.964;2023-08-06T15:03:45;18.60;99.90
9965;DHT22;5023;53.554;9.964;2023-08-06T15:08:47;18.50;99.90
9965;DHT22;5023;53.554;9.964;2023-08-06T15:13:49;18.40;99.90
9965;DHT22;5023;53.554;9.964;2023-08-06T15:18:52;18.40;99.90
9965;DHT22;5023;53.554;9.964;2023-08-06T15:23:54;18.40;99.90
9965;DHT22;5023;53.554;9.964;2023-08-06T15:28:56;18.50;99.90
9965;DHT22;5023;53.554;9.964;2023-08-06T15:34:00;18.40;99.90
9965;DHT22;5023;53.554;9.964;2023-08-06T15:39:04;18.50;99.90
9965;DHT22;5023;53.554;9.964;2023-08-06T15:44:06;18.60;99.90
9965;DHT22;5023;53.554;9.964;2023-08-06T15:49:09;18.60;99.90
9965;DHT22;5023;53.554;9.964;2023-08-06T15:54:11;18.60;99.90
9965;DHT22;5023;53.554;9.964;2023-08-06T15:59:23;18.60;99.90
9965;DHT22;5023;53.554;9.964;2023-08-06T16:04:27;18.60;99.90
9965;DHT22;5023;53.554;9.964;2023-08-06T16:09:29;18.60;99.90
9965;DHT22;5023;53.554;9.964;2023-08-06T16:14:31;18.70;99.90
9965;DHT22;5023;53.554;9.964;2023-08-06T16:19:38;18.60;99.90
9965;DHT22;5023;53.554;9.964;2023-08-06T16:24:40;18.70;99.90
9965;DHT22;5023;53.554;9.964;2023-08-06T16:29:42;18.70;99.90
9965;DHT22;5023;53.554;9.964;2023-08-06T16:34:47;18.60;99.90
9965;DHT22;5023;53.554;9.964;2023-08-06T16:39:50;18.60;99.90
9965;DHT22;5023;53.554;9.964;2023-08-06T16:44:52;18.50;99.90
9965;DHT22;5023;53.554;9.964;2023-08-06T16:49:55;18.50;99.90
9965;DHT22;5023;53.554;9.964;2023-08-06T16:54:57;18.50;99.90
9965;DHT22;5023;53.554;9.964;2023-08-06T16:59:59;18.50;99.90
9965;DHT22;5023;53.554;9.964;2023-08-06T17:05:04;18.50;99.90
9965;DHT22;5023;53.554;9.964;2023-08-06T17:10:07;18.50;99.90
9965;DHT22;5023;53.554;9.964;2023-08-06T17:15:09;18.50;99.90
9965;DHT22;5023;53.554;9.964;2023-08-06T17:20:13;18.60;99.90
9965;DHT22;5023;53.554;9.964;2023-08-06T17:25:15;18.50;99.90
9965;DHT22;5023;53.554;9.964;2023-08-06T17:30:17;18.50;99.90
9965;DHT22;5023;53.554;9.964;2023-08-06T17:35:21;18.50;99.90
9965;DHT22;5023;53.554;9.964;2023-08-06T17:40:23;18.50;99.90
9965;DHT22;5023;53.554;9.964;2023-08-06T17:45:25;18.50;99.90
9965;DHT22;5023;53.554;9.964;2023-08-06T17:50:28;18.50;99.90
9965;DHT22;5023;53.554;9.964;2023-08-06T17:55:30;18.50;99.90
9965;DHT22;5023;53.554;9.964;2023-08-06T18:00:32;18.50;99.90
9965;DHT22;5023;53.554;9.964;2023-08-06T18:05:36;18.50;99.90
9965;DHT22;5023;53.554;9.964;2023-08-06T18:10:37;18.40;99.90
9965;DHT22;5023;53.554;9.964;2023-08-06T18:15:40;18.40;99.90
9965;DHT22;5023;53.554;9.964;2023-08-06T18:20:43;18.30;99.90
9965;DHT22;5023;53.554;9.964;2023-08-06T18:25:45;18.30;99.90
9965;DHT22;5023;53.554;9.964;2023-08-06T18:30:47;18.30;99.90
9965;DHT22;5023;53.554;9.964;2023-08-06T18:35:50;18.30;99.90
9965;DHT22;5023;53.554;9.964;2023-08-06T18:40:56;18.30;99.90
9965;DHT22;5023;53.554;9.964;2023-08-06T18:45:58;18.30;99.90
9965;DHT22;5023;53.554;9.964;2023-08-06T18:51:02;18.20;99.90
9965;DHT22;5023;53.554;9.964;2023-08-06T18:56:04;18.20;99.90
9965;DHT22;5023;53.554;9.964;2023-08-06T19:01:06;18.20;99.90
9965;DHT22;5023;53.554;9.964;2023-08-06T19:06:09;18.20;99.90
9965;DHT22;5023;53.554;9.964;2023-08-06T19:11:11;18.20;99.90
9965;DHT22;5023;53.554;9.964;2023-08-06T19:16:25;18.20;99.90
9965;DHT22;5023;53.554;9.964;2023-08-06T19:21:48;18.20;99.90
9965;DHT22;5023;53.554;9.964;2023-08-06T19:26:52;18.20;99.90
9965;DHT22;5023;53.554;9.964;2023-08-06T19:31:54;18.20;99.90
9965;DHT22;5023;53.554;9.964;2023-08-06T19:36:58;18.20;99.90
9965;DHT22;5023;53.554;9.964;2023-08-06T19:42:00;18.20;99.90
9965;DHT22;5023;53.554;9.964;2023-08-06T19:47:02;18.20;99.90
9965;DHT22;5023;53.554;9.964;2023-08-06T19:52:06;18.20;99.90
9965;DHT22;5023;53.554;9.964;2023-08-06T19:57:08;18.20;99.90
9965;DHT22;5023;53.554;9.964;2023-08-06T20:02:10;18.20;99.90
9965;DHT22;5023;53.554;9.964;2023-08-06T20:07:14;18.10;99.90
9965;DHT22;5023;53.554;9.964;2023-08-06T20:12:16;18.10;99.90
9965;DHT22;5023;53.554;9.964;2023-08-06T20:17:18;18.10;99.90
9965;DHT22;5023;53.554;9.964;2023-08-06T20:22:21;18.00;99.90
9965;DHT22;5023;53.554;9.964;2023-08-06T20:27:23;18.00;99.90
9965;DHT22;5023;53.554;9.964;2023-08-06T20:32:25;17.90;99.90
9965;DHT22;5023;53.554;9.964;2023-08-06T20:37:29;17.90;99.90
9965;DHT22;5023;53.554;9.964;2023-08-06T20:42:31;17.90;99.90
9965;DHT22;5023;53.554;9.964;2023-08-06T20:47:33;17.90;99.90
9965;DHT22;5023;53.554;9.964;2023-08-06T20:52:36;17.90;99.90
9965;DHT22;5023;53.554;9.964;2023-08-06T20:57:38;17.80;99.90
9965;DHT22;5023;53.554;9.964;2023-08-06T21:02:41;17.80;99.90
9965;DHT22;5023;53.554;9.964;2023-08-06T21:07:44;17.80;99.90
9965;DHT22;5023;53.554;9.964;2023-08-06T21:12:46;17.70;99.90
9965;DHT22;5023;53.554;9.964;2023-08-06T21:17:48;17.60;99.90
9965;DHT22;5023;53.554;9.964;2023-08-06T21:22:51;17.60;99.90
9965;DHT22;5023;53.554;9.964;2023-08-06T21:27:53;17.50;99.90
9965;DHT22;5023;53.554;9.964;2023-08-06T21:32:55;17.50;99.90
9965;DHT22;5023;53.554;9.964;2023-08-06T21:37:58;17.60;99.90
9965;DHT22;5023;53.554;9.964;2023-08-06T21:43:00;17.50;99.90
9965;DHT22;5023;53.554;9.964;2023-08-06T21:48:03;17.40;99.90
9965;DHT22;5023;53.554;9.964;2023-08-06T21:53:06;17.40;99.90
9965;DHT22;5023;53.554;9.964;2023-08-06T21:58:08;17.40;99.90
9965;DHT22;5023;53.554;9.964;2023-08-06T22:03:10;17.40;99.90
9965;DHT22;5023;53.554;9.964;2023-08-06T22:08:13;17.50;99.90
9965;DHT22;5023;53.554;9.964;2023-08-06T22:13:16;17.50;99.90
9965;DHT22;5023;53.554;9.964;2023-08-06T22:18:18;17.40;99.90
9965;DHT22;5023;53.554;9.964;2023-08-06T22:23:21;17.40;99.90
9965;DHT22;5023;53.554;9.964;2023-08-06T22:28:24;17.40;99.90
9965;DHT22;5023;53.554;9.964;2023-08-06T22:33:26;17.40;99.90
9965;DHT22;5023;53.554;9.964;2023-08-06T22:38:31;17.40;99.90
9965;DHT22;5023;53.554;9.964;2023-08-06T22:43:33;17.30;99.90
9965;DHT22;5023;53.554;9.964;2023-08-06T22:48:35;17.30;99.90
9965;DHT22;5023;53.554;9.964;2023-08-06T22:53:38;17.30;99.90
9965;DHT22;5023;53.554;9.964;2023-08-06T22:58:40;17.30;99.90
9965;DHT22;5023;53.554;9.964;2023-08-06T23:03:42;17.20;99.90
9965;DHT22;5023;53.554;9.964;2023-08-06T23:08:46;17.20;99.90
9965;DHT22;5023;53.554;9.964;2023-08-06T23:13:49;17.20;99.90
9965;DHT22;5023;53.554;9.964;2023-08-06T23:18:51;17.20;99.90
9965;DHT22;5023;53.554;9.964;2023-08-06T23:23:54;17.10;99.90
9965;DHT22;5023;53.554;9.964;2023-08-06T23:28:56;17.10;99.90
9965;DHT22;5023;53.554;9.964;2023-08-06T23:33:58;17.10;99.90
9965;DHT22;5023;53.554;9.964;2023-08-06T23:39:01;17.00;99.90
9965;DHT22;5023;53.554;9.964;2023-08-06T23:44:03;16.90;99.90
9965;DHT22;5023;53.554;9.964;2023-08-06T23:49:05;16.90;99.90
9965;DHT22;5023;53.554;9.964;2023-08-06T23:54:09;16.90;99.90
9965;DHT22;5023;53.554;9.964;2023-08-06T23:59:11;16.90;99.90
